EBUL weather

Ursel Air Base
Ursel, East Flanders, Belgium

Public forecast

Using degrees Celsius for public forecast. Weather courtesy of forecast.io.

METAR (pilot weather report)

Closest report is Ostend-Bruges International Airport, 23.3 nm (43.2 km) W. Retrieved 2019/04/23 23:20 UTC (11 minutes ago):

EBOS 232320Z 14004KT CAVOK 13/09 Q0995 NOSIG

TAF (pilot weather forecast)

Closest forecast is Ostend-Bruges International Airport, 23.3 nm (43.2 km) W. Retrieved 2019/04/23 18:27 UTC (5 hours ago):

TAF EBOS 231720Z 2318/2424 08008KT CAVOK BECMG 2400/2402 17010KT PROB40 TEMPO 2409/2417 17018G32KT